| time (UTC) | temp C | wind direction | speed KPH | gust KPH | rain 1hr cm | rain 24hr cm | rain mn cm | humidity % | barometer mb |
| 20260507143516 | 12 | 338 | 3.2 | 9.7 | 0.00 | 0.38 | 0.84 | 74 | 1011.1 |
| 20260507142751 | 12 | 15 | 3.2 | 6.4 | 0.00 | 0.38 | 0.84 | 78 | 1011.0 |
| 20260507142515 | 12 | 261 | 3.2 | 6.4 | 0.00 | 0.38 | 0.84 | 77 | 1011.0 |
| 20260507141751 | 12 | 333 | 1.6 | 9.7 | 0.00 | 0.38 | 0.84 | 80 | 1011.1 |
| 20260507141250 | 12 | 10 | 3.2 | 9.7 | 0.00 | 0.38 | 0.84 | 81 | 1011.0 |
| 20260507141010 | 12 | 240 | 3.2 | 12.9 | 0.00 | 0.38 | 0.84 | 82 | 1011.1 |
| 20260507140250 | 11 | 274 | 4.8 | 12.9 | 0.00 | 0.38 | 0.84 | 83 | 1011.1 |
| 20260507135750 | 11 | 246 | 4.8 | 12.9 | 0.00 | 0.38 | 0.84 | 85 | 1011.1 |
| 20260507135510 | 11 | 280 | 4.8 | 12.9 | 0.00 | 0.38 | 0.84 | 86 | 1011.0 |
| 20260507134750 | 11 | 182 | 4.8 | 9.7 | 0.00 | 0.38 | 0.84 | 88 | 1011.1 |
| 20260507134447 | 10 | 247 | 4.8 | 14.5 | 0.00 | 0.38 | 0.84 | 90 | 1011.2 |
| 20260507134334 | 10 | 268 | 4.8 | 14.5 | 0.00 | 0.38 | 0.84 | 88 | 1011.1 |
| 20260507133250 | 10 | 255 | 4.8 | 11.3 | 0.00 | 0.38 | 0.84 | 90 | 1011.2 |
| 20260507132750 | 10 | 264 | 4.8 | 11.3 | 0.00 | 0.38 | 0.84 | 91 | 1011.3 |
| 20260507132251 | 10 | 262 | 4.8 | 11.3 | 0.00 | 0.38 | 0.84 | 92 | 1011.4 |
| 20260507131750 | 10 | 262 | 4.8 | 11.3 | 0.00 | 0.38 | 0.84 | 93 | 1011.2 |
| 20260507131252 | 10 | 244 | 3.2 | 11.3 | 0.00 | 0.38 | 0.84 | 94 | 1011.3 |
| 20260507130740 | 10 | 315 | 4.8 | 11.3 | 0.00 | 0.38 | 0.84 | 94 | 1011.3 |
| 20260507130502 | 10 | 203 | 3.2 | 8.0 | 0.00 | 0.38 | 0.84 | 94 | 1011.1 |
| 20260507130002 | 9 | 70 | 3.2 | 8.0 | 0.00 | 0.38 | 0.84 | 94 | 1011.2 |
| 20260507125238 | 9 | 267 | 3.2 | 8.0 | 0.00 | 0.38 | 0.84 | 94 | 1011.2 |
| 20260507124738 | 9 | 262 | 3.2 | 8.0 | 0.00 | 0.38 | 0.84 | 94 | 1011.2 |
| 20260507124222 | 9 | 89 | 3.2 | 8.0 | 0.00 | 0.38 | 0.84 | 94 | 1011.2 |
| 20260507123722 | 9 | 342 | 3.2 | 6.4 | 0.00 | 0.38 | 0.84 | 94 | 1011.3 |
| 20260507123222 | 9 | 248 | 3.2 | 6.4 | 0.00 | 0.38 | 0.84 | 94 | 1011.1 |
| 20260507122940 | 9 | 271 | 3.2 | 6.4 | 0.00 | 0.38 | 0.84 | 94 | 1011.2 |
| 20260507122223 | 9 | 257 | 1.6 | 4.8 | 0.00 | 0.38 | 0.84 | 94 | 1011.1 |
| 20260507121723 | 9 | 208 | 1.6 | 6.4 | 0.00 | 0.38 | 0.84 | 94 | 1011.3 |
| 20260507121223 | 9 | 0 | 3.2 | 6.4 | 0.00 | 0.38 | 0.84 | 94 | 1011.4 |
| 20260507120943 | 9 | 271 | 3.2 | 8.0 | 0.00 | 0.38 | 0.84 | 94 | 1011.5 |
| 20260507120444 | 9 | 260 | 3.2 | 8.0 | 0.00 | 0.38 | 0.84 | 94 | 1011.5 |
| 20260507115723 | 9 | 265 | 3.2 | 4.8 | 0.05 | 0.38 | 0.84 | 94 | 1011.2 |
| 20260507115223 | 9 | 270 | 3.2 | 4.8 | 0.10 | 0.38 | 0.84 | 94 | 1010.9 |
| 20260507114723 | 9 | 263 | 3.2 | 8.0 | 0.13 | 0.38 | 0.84 | 94 | 1011.0 |
| 20260507114223 | 9 | 253 | 3.2 | 8.0 | 0.15 | 0.38 | 0.84 | 94 | 1011.0 |
| 20260507113708 | 9 | 257 | 3.2 | 8.0 | 0.15 | 0.38 | 0.84 | 94 | 1011.1 |
| 20260507113208 | 9 | 0 | 1.6 | 3.2 | 0.20 | 0.38 | 0.84 | 94 | 1010.9 |
| 20260507112708 | 9 | 285 | 3.2 | 4.8 | 0.20 | 0.38 | 0.84 | 94 | 1010.9 |
| 20260507112153 | 9 | 255 | 3.2 | 4.8 | 0.23 | 0.38 | 0.84 | 94 | 1011.1 |
| 20260507111653 | 9 | 212 | 3.2 | 6.4 | 0.23 | 0.38 | 0.84 | 94 | 1011.1 |
| 20260507111154 | 9 | 236 | 3.2 | 6.4 | 0.30 | 0.38 | 0.84 | 94 | 1011.1 |
| 20260507110654 | 9 | 268 | 3.2 | 4.8 | 0.33 | 0.38 | 0.84 | 94 | 1010.9 |
| 20260507110644 | 9 | 256 | 3.2 | 4.8 | 0.33 | 0.38 | 0.84 | 94 | 1010.8 |
| 20260507105652 | 9 | 255 | 3.2 | 4.8 | 0.28 | 0.30 | 0.79 | 94 | 1011.0 |
| 20260507105153 | 9 | 240 | 3.2 | 4.8 | 0.23 | 0.25 | 0.74 | 94 | 1010.9 |
| 20260507104653 | 9 | 262 | 1.6 | 4.8 | 0.20 | 0.23 | 0.71 | 94 | 1010.8 |
| 20260507104140 | 9 | 255 | 1.6 | 3.2 | 0.18 | 0.23 | 0.71 | 93 | 1010.6 |
| 20260507103639 | 9 | 0 | 0.0 | 3.2 | 0.18 | 0.20 | 0.69 | 93 | 1010.5 |
| 20260507103139 | 9 | 0 | 0.0 | 0.0 | 0.15 | 0.15 | 0.64 | 93 | 1010.5 |
| 20260507102640 | 8 | 0 | 0.0 | 1.6 | 0.15 | 0.15 | 0.64 | 93 | 1010.5 |
| 20260507102125 | 9 | 0 | 0.0 | 3.2 | 0.15 | 0.15 | 0.64 | 93 | 1010.6 |
| 20260507101625 | 9 | 135 | 0.0 | 3.2 | 0.10 | 0.13 | 0.61 | 93 | 1010.8 |
| 20260507101125 | 9 | 128 | 0.0 | 3.2 | 0.05 | 0.05 | 0.53 | 93 | 1010.7 |
| 20260507100842 | 9 | 0 | 1.6 | 3.2 | 0.05 | 0.05 | 0.51 | 93 | 1010.7 |
| 20260507100125 | 9 | 0 | 1.6 | 3.2 | 0.05 | 0.05 | 0.51 | 93 | 1010.7 |
| 20260507095625 | 9 | 143 | 1.6 | 3.2 | 0.05 | 0.05 | 0.51 | 93 | 1010.6 |
| 20260507095607 | 9 | 89 | 1.6 | 4.8 | 0.05 | 0.05 | 0.51 | 93 | 1010.6 |
| 20260507094852 | 9 | 264 | 1.6 | 4.8 | 0.05 | 0.05 | 0.51 | 93 | 1010.7 |
| 20260507094110 | 9 | 41 | 3.2 | 6.4 | 0.03 | 0.03 | 0.51 | 93 | 1010.5 |
| 20260507093611 | 9 | 26 | 3.2 | 6.4 | 0.03 | 0.03 | 0.51 | 93 | 1010.6 |
| 20260507093111 | 9 | 94 | 1.6 | 3.2 | 0.00 | 0.00 | 0.48 | 93 | 1010.2 |
| 20260507092612 | 9 | 203 | 1.6 | 3.2 | 0.00 | 0.00 | 0.48 | 93 | 1010.2 |
| 20260507092336 | 9 | 236 | 1.6 | 6.4 | 0.00 | 0.00 | 0.48 | 93 | 1010.4 |
| 20260507091829 | 9 | 185 | 1.6 | 6.4 | 0.00 | 0.00 | 0.48 | 93 | 1010.3 |
| 20260507091600 | 9 | 73 | 1.6 | 3.2 | 0.00 | 0.00 | 0.48 | 92 | 1010.2 |
| 20260507090613 | 9 | 88 | 1.6 | 4.8 | 0.00 | 0.00 | 0.48 | 92 | 1010.1 |
| 20260507090112 | 9 | 227 | 1.6 | 8.0 | 0.00 | 0.00 | 0.48 | 92 | 1010.2 |
| 20260507085558 | -17 | 0.0 | 0.0 | 0.00 | 0.00 | 0.48 | |||
| 20260507084241 | 9 | 80 | 1.6 | 4.8 | 0.28 | 0.64 | 0.48 | 92 | 1010.0 |
| 20260507083742 | 9 | 122 | 1.6 | 4.8 | 0.28 | 0.61 | 0.46 | 92 | 1010.0 |
| 20260507083243 | 10 | 141 | 1.6 | 4.8 | 0.30 | 0.61 | 0.46 | 92 | 1010.1 |
| 20260507082742 | 10 | 264 | 1.6 | 4.8 | 0.38 | 0.58 | 0.43 | 92 | 1010.1 |
| 20260507082243 | 10 | 258 | 1.6 | 3.2 | 0.41 | 0.58 | 0.43 | 92 | 1010.1 |
| 20260507081742 | 10 | 200 | 1.6 | 4.8 | 0.43 | 0.56 | 0.43 | 92 | 1010.1 |
| 20260507081512 | 10 | 272 | 1.6 | 4.8 | 0.41 | 0.56 | 0.41 | 92 | 1010.0 |
| 20260507080742 | 10 | 175 | 1.6 | 4.8 | 0.41 | 0.56 | 0.41 | 92 | 1010.0 |
| 20260507080244 | 10 | 81 | 3.2 | 8.0 | 0.38 | 0.53 | 0.38 | 91 | 1009.9 |
| 20260507075743 | 10 | 243 | 3.2 | 8.0 | 0.30 | 0.46 | 0.30 | 91 | 1010.5 |
| 20260507075719 | 10 | 55 | 4.8 | 9.7 | 0.23 | 0.38 | 0.23 | 91 | 1010.6 |
| 20260507074733 | 11 | 254 | 4.8 | 9.7 | 0.23 | 0.38 | 0.23 | 91 | 1010.5 |
| 20260507074228 | 11 | 302 | 3.2 | 11.3 | 0.20 | 0.36 | 0.23 | 90 | 1010.3 |
| 20260507073728 | 11 | 296 | 3.2 | 11.3 | 0.18 | 0.33 | 0.18 | 89 | 1010.3 |
| 20260507073228 | 11 | 209 | 3.2 | 8.0 | 0.15 | 0.28 | 0.15 | 88 | 1010.5 |
| 20260507072728 | 11 | 151 | 3.2 | 8.0 | 0.05 | 0.20 | 0.05 | 87 | 1010.5 |
| 20260507072227 | 12 | 262 | 3.2 | 8.0 | 0.03 | 0.18 | 0.03 | 87 | 1009.9 |
| 20260507071729 | 12 | 257 | 3.2 | 8.0 | 0.00 | 0.15 | 0.00 | 87 | 1009.6 |
| 20260507071228 | 12 | 121 | 1.6 | 4.8 | 0.00 | 0.15 | 0.00 | 89 | 1009.1 |
| 20260507070728 | 12 | 88 | 1.6 | 3.2 | 0.00 | 0.15 | 0.00 | 90 | 1009.1 |
| 20260507070228 | 12 | 227 | 1.6 | 3.2 | 0.00 | 0.15 | 0.00 | 90 | 1009.1 |
| 20260507065953 | 12 | 155 | 1.6 | 3.2 | 0.00 | 0.15 | 0.00 | 91 | 1009.0 |
| 20260507065228 | 12 | 350 | 1.6 | 3.2 | 0.00 | 0.15 | 0.00 | 91 | 1009.0 |
| 20260507064728 | 12 | 0 | 1.6 | 4.8 | 0.00 | 0.15 | 0.00 | 91 | 1009.0 |
| 20260507064227 | 13 | 59 | 1.6 | 4.8 | 0.00 | 0.15 | 0.00 | 91 | 1009.2 |
| 20260507063729 | 13 | 0 | 1.6 | 6.4 | 0.00 | 0.15 | 0.00 | 91 | 1009.3 |
| 20260507063450 | 13 | 305 | 1.6 | 6.4 | 0.00 | 0.15 | 0.00 | 91 | 1009.3 |
| 20260507062715 | 13 | 235 | 1.6 | 8.0 | 0.00 | 0.15 | 0.00 | 91 | 1009.2 |
| 20260507062159 | 13 | 356 | 1.6 | 8.0 | 0.00 | 0.15 | 0.00 | 91 | 1009.2 |
| 20260507061922 | 13 | 237 | 1.6 | 4.8 | 0.00 | 0.15 | 0.00 | 92 | 1009.2 |
| 20260507061159 | 13 | 260 | 1.6 | 4.8 | 0.00 | 0.15 | 0.00 | 92 | 1009.1 |
| 20260507060700 | 13 | 191 | 0.0 | 3.2 | 0.00 | 0.15 | 0.00 | 92 | 1009.2 |
| 20260507060200 | 13 | 197 | 1.6 | 3.2 | 0.00 | 0.15 | 0.00 | 92 | 1009.2 |
| 20260507055701 | 13 | 262 | 1.6 | 4.8 | 0.00 | 0.15 | 0.00 | 92 | 1009.2 |
| 20260507055157 | 13 | 243 | 3.2 | 6.4 | 0.00 | 0.15 | 0.00 | 92 | 1009.3 |
| 20260507054659 | 13 | 195 | 3.2 | 6.4 | 0.00 | 0.15 | 0.00 | 92 | 1009.4 |
| 20260507054420 | 13 | 51 | 3.2 | 4.8 | 0.00 | 0.15 | 0.00 | 92 | 1009.4 |
| 20260507053644 | 14 | 116 | 3.2 | 6.4 | 0.00 | 0.15 | 0.00 | 92 | 1009.5 |
| 20260507053131 | 14 | 225 | 3.2 | 6.4 | 0.00 | 0.15 | 0.00 | 92 | 1009.6 |
| 20260507052629 | 14 | 254 | 3.2 | 6.4 | 0.00 | 0.15 | 0.00 | 92 | 1009.6 |
| 20260507052115 | 14 | 251 | 3.2 | 6.4 | 0.00 | 0.15 | 0.00 | 92 | 1009.6 |
| 20260507051615 | 14 | 218 | 3.2 | 6.4 | 0.00 | 0.15 | 0.00 | 92 | 1009.6 |
| 20260507051337 | 14 | 250 | 1.6 | 6.4 | 0.00 | 0.15 | 0.00 | 92 | 1009.7 |
| 20260507050615 | 14 | 232 | 1.6 | 3.2 | 0.00 | 0.15 | 0.00 | 92 | 1009.6 |
| 20260507050338 | 14 | 0 | 1.6 | 3.2 | 0.00 | 0.15 | 0.00 | 93 | 1009.7 |
| 20260507045615 | 14 | 254 | 3.2 | 6.4 | 0.00 | 0.15 | 0.00 | 93 | 1009.8 |
| 20260507045116 | 14 | 219 | 3.2 | 6.4 | 0.00 | 0.15 | 0.00 | 93 | 1009.7 |
| 20260507044616 | 14 | 270 | 1.6 | 6.4 | 0.00 | 0.15 | 0.00 | 93 | 1009.7 |
| 20260507044116 | 14 | 289 | 1.6 | 4.8 | 0.00 | 0.15 | 0.00 | 93 | 1009.7 |
| 20260507043820 | 14 | 251 | 3.2 | 4.8 | 0.00 | 0.15 | 0.00 | 94 | 1009.6 |
| 20260507043100 | 14 | 265 | 3.2 | 4.8 | 0.00 | 0.15 | 0.00 | 94 | 1009.7 |
| 20260507042600 | 15 | 282 | 3.2 | 6.4 | 0.00 | 0.15 | 0.00 | 94 | 1009.7 |
| 20260507042100 | 15 | 257 | 3.2 | 6.4 | 0.00 | 0.15 | 0.00 | 94 | 1009.7 |
| 20260507041601 | 15 | 289 | 3.2 | 6.4 | 0.00 | 0.15 | 0.00 | 94 | 1009.6 |
| 20260507041101 | 15 | 243 | 3.2 | 9.7 | 0.00 | 0.15 | 0.00 | 94 | 1009.4 |
| 20260507040601 | 15 | 194 | 3.2 | 9.7 | 0.00 | 0.15 | 0.00 | 94 | 1009.5 |
| 20260507035601 | 14 | 190 | 4.8 | 8.0 | 0.00 | 0.15 | 0.15 | 94 | 1009.6 |
| 20260507035534 | 14 | 238 | 4.8 | 8.0 | 0.00 | 0.15 | 0.15 | 94 | 1009.5 |
| 20260507034819 | 14 | 262 | 3.2 | 6.4 | 0.00 | 0.15 | 0.15 | 94 | 1009.5 |
| 20260507034306 | 14 | 260 | 4.8 | 8.0 | 0.00 | 0.15 | 0.15 | 94 | 1009.4 |
| 20260507033531 | 14 | 193 | 3.2 | 8.0 | 0.00 | 0.15 | 0.15 | 94 | 1009.5 |
| 20260507033031 | 14 | 170 | 3.2 | 8.0 | 0.00 | 0.15 | 0.15 | 94 | 1009.6 |
| 20260507032532 | 14 | 169 | 3.2 | 8.0 | 0.00 | 0.15 | 0.15 | 94 | 1009.8 |
| 20260507032032 | 14 | 183 | 3.2 | 8.0 | 0.00 | 0.15 | 0.15 | 95 | 1009.8 |
| 20260507031756 | 14 | 243 | 3.2 | 9.7 | 0.00 | 0.15 | 0.15 | 95 | 1009.7 |
| 20260507031020 | 14 | 246 | 3.2 | 9.7 | 0.00 | 0.15 | 0.15 | 94 | 1009.6 |
| 20260507030517 | 14 | 278 | 4.8 | 9.7 | 0.00 | 0.15 | 0.15 | 94 | 1009.5 |
| 20260507030009 | 14 | 218 | 4.8 | 11.3 | 0.00 | 0.15 | 0.15 | 94 | 1009.6 |
| 20260507025508 | 14 | 225 | 4.8 | 11.3 | 0.00 | 0.15 | 0.15 | 94 | 1009.5 |
| 20260507025001 | 14 | 198 | 4.8 | 11.3 | 0.00 | 0.15 | 0.15 | 94 | 1009.5 |
| 20260507024502 | 14 | 161 | 4.8 | 9.7 | 0.00 | 0.15 | 0.15 | 94 | 1009.5 |
| 20260507024000 | 14 | 223 | 4.8 | 9.7 | 0.00 | 0.15 | 0.15 | 94 | 1009.5 |
| 20260507023500 | 14 | 239 | 4.8 | 9.7 | 0.00 | 0.15 | 0.15 | 94 | 1009.4 |
| 20260507023000 | 13 | 191 | 3.2 | 9.7 | 0.00 | 0.15 | 0.15 | 94 | 1009.5 |
| 20260507022501 | 13 | 240 | 4.8 | 9.7 | 0.00 | 0.15 | 0.15 | 94 | 1009.5 |
| 20260507022001 | 13 | 251 | 4.8 | 9.7 | 0.00 | 0.15 | 0.15 | 94 | 1009.5 |
| 20260507021501 | 13 | 236 | 4.8 | 9.7 | 0.00 | 0.15 | 0.15 | 94 | 1009.5 |
| 20260507021001 | 13 | 196 | 3.2 | 9.7 | 0.00 | 0.15 | 0.15 | 94 | 1009.5 |
| 20260507020501 | 13 | 234 | 3.2 | 9.7 | 0.00 | 0.15 | 0.15 | 94 | 1009.5 |
| 20260507020001 | 13 | 177 | 3.2 | 8.0 | 0.00 | 0.15 | 0.15 | 94 | 1009.5 |
| 20260507015502 | 13 | 128 | 3.2 | 9.7 | 0.00 | 0.15 | 0.15 | 94 | 1009.5 |
| 20260507015231 | 13 | 228 | 3.2 | 9.7 | 0.00 | 0.15 | 0.15 | 94 | 1009.5 |
| 20260507014501 | 13 | 235 | 3.2 | 9.7 | 0.00 | 0.15 | 0.15 | 94 | 1009.5 |
| 20260507013957 | 13 | 194 | 4.8 | 9.7 | 0.00 | 0.15 | 0.15 | 94 | 1009.5 |
| 20260507013943 | 13 | 163 | 4.8 | 9.7 | 0.00 | 0.15 | 0.15 | 94 | 1009.6 |
| 20260507012957 | 13 | 196 | 4.8 | 12.9 | 0.00 | 0.15 | 0.15 | 94 | 1009.6 |
| 20260507012452 | 13 | 190 | 4.8 | 12.9 | 0.00 | 0.15 | 0.15 | 94 | 1009.6 |
| 20260507012214 | 13 | 229 | 4.8 | 11.3 | 0.00 | 0.15 | 0.15 | 94 | 1009.8 |
| 20260507011449 | 13 | 248 | 4.8 | 9.7 | 0.00 | 0.15 | 0.15 | 94 | 1009.8 |
| 20260507011411 | 13 | 250 | 4.8 | 8.0 | 0.00 | 0.15 | 0.15 | 94 | 1009.8 |
| 20260507010654 | 13 | 240 | 4.8 | 8.0 | 0.00 | 0.15 | 0.15 | 94 | 1009.8 |
| 20260507005934 | 13 | 244 | 4.8 | 9.7 | 0.00 | 0.15 | 0.15 | 94 | 1009.7 |
| 20260507005421 | 13 | 184 | 4.8 | 9.7 | 0.00 | 0.15 | 0.15 | 94 | 1009.9 |
| 20260507004921 | 13 | 190 | 4.8 | 9.7 | 0.00 | 0.15 | 0.15 | 94 | 1009.9 |
| 20260507004421 | 13 | 184 | 4.8 | 9.7 | 0.00 | 0.15 | 0.15 | 94 | 1009.8 |
| 20260507003922 | 13 | 240 | 4.8 | 9.7 | 0.00 | 0.15 | 0.15 | 94 | 1009.9 |
| 20260507003421 | 13 | 250 | 4.8 | 8.0 | 0.00 | 0.15 | 0.15 | 94 | 1009.8 |
| 20260507002919 | 13 | 161 | 3.2 | 6.4 | 0.00 | 0.15 | 0.15 | 94 | 1009.8 |
| 20260507002419 | 13 | 157 | 4.8 | 11.3 | 0.00 | 0.15 | 0.15 | 94 | 1009.7 |
| 20260507001910 | 13 | 200 | 4.8 | 11.3 | 0.00 | 0.15 | 0.15 | 94 | 1009.7 |
| 20260507001410 | 13 | 237 | 4.8 | 9.7 | 0.00 | 0.15 | 0.15 | 93 | 1009.7 |
| 20260507001133 | 13 | 179 | 4.8 | 9.7 | 0.00 | 0.15 | 0.15 | 93 | 1009.7 |
| 20260507000412 | 13 | 177 | 4.8 | 9.7 | 0.00 | 0.15 | 0.15 | 93 | 1009.7 |
| 20260506235905 | 13 | 215 | 4.8 | 9.7 | 0.00 | 0.15 | 0.15 | 93 | 1009.7 |
| 20260506235846 | 13 | 202 | 4.8 | 9.7 | 0.00 | 0.15 | 0.15 | 93 | 1009.7 |
| 20260506234905 | 13 | 223 | 4.8 | 9.7 | 0.00 | 0.15 | 0.15 | 93 | 1009.7 |
| 20260506234405 | 13 | 272 | 4.8 | 11.3 | 0.00 | 0.15 | 0.15 | 93 | 1009.6 |
| 20260506233905 | 13 | 203 | 4.8 | 11.3 | 0.00 | 0.15 | 0.15 | 93 | 1009.6 |
| 20260506233405 | 13 | 238 | 4.8 | 9.7 | 0.00 | 0.15 | 0.15 | 93 | 1009.5 |
| 20260506232904 | 13 | 252 | 4.8 | 12.9 | 0.03 | 0.15 | 0.15 | 93 | 1009.5 |
| 20260506232406 | 13 | 192 | 6.4 | 12.9 | 0.03 | 0.15 | 0.15 | 93 | 1009.5 |
| 20260506231905 | 13 | 209 | 6.4 | 12.9 | 0.00 | 0.15 | 0.15 | 93 | 1009.6 |
| 20260506231406 | 13 | 221 | 4.8 | 9.7 | 0.00 | 0.15 | 0.15 | 93 | 1009.6 |
| 20260506230906 | 13 | 194 | 4.8 | 9.7 | 0.00 | 0.15 | 0.15 | 93 | 1009.6 |
| 20260506230623 | 13 | 357 | 4.8 | 12.9 | 0.00 | 0.15 | 0.15 | 93 | 1009.6 |
| 20260506225900 | 13 | 229 | 4.8 | 12.9 | 0.00 | 0.15 | 0.15 | 93 | 1009.6 |
| 20260506225354 | 13 | 154 | 4.8 | 11.3 | 0.00 | 0.15 | 0.15 | 92 | 1009.7 |
| 20260506224851 | 13 | 219 | 4.8 | 8.0 | 0.00 | 0.15 | 0.15 | 92 | 1009.6 |
| 20260506224335 | 13 | 161 | 4.8 | 8.0 | 0.00 | 0.15 | 0.15 | 92 | 1009.5 |
| 20260506223835 | 13 | 201 | 4.8 | 8.0 | 0.00 | 0.15 | 0.15 | 92 | 1009.5 |
| 20260506223335 | 14 | 184 | 4.8 | 8.0 | 0.00 | 0.15 | 0.15 | 92 | 1009.4 |
| 20260506223102 | 14 | 175 | 4.8 | 8.0 | 0.00 | 0.13 | 0.13 | 92 | 1009.4 |
| 20260506222559 | 14 | 192 | 4.8 | 8.0 | 0.00 | 0.13 | 0.13 | 92 | 1009.5 |
| 20260506221836 | 14 | 188 | 4.8 | 8.0 | 0.00 | 0.13 | 0.13 | 92 | 1009.5 |
| 20260506221336 | 14 | 211 | 4.8 | 9.7 | 0.00 | 0.13 | 0.13 | 92 | 1009.5 |
| 20260506220830 | 14 | 142 | 4.8 | 9.7 | 0.00 | 0.13 | 0.13 | 91 | 1009.7 |
| 20260506220330 | 14 | 160 | 6.4 | 9.7 | 0.00 | 0.13 | 0.13 | 91 | 1009.8 |
| 20260506215830 | 14 | 173 | 4.8 | 9.7 | 0.00 | 0.13 | 0.13 | 91 | 1009.9 |
| 20260506215327 | 15 | 191 | 4.8 | 9.7 | 0.00 | 0.13 | 0.13 | 91 | 1009.8 |
| 20260506214825 | 15 | 275 | 3.2 | 9.7 | 0.00 | 0.13 | 0.13 | 90 | 1009.8 |
| 20260506214547 | 15 | 174 | 3.2 | 11.3 | 0.00 | 0.13 | 0.13 | 90 | 1010.0 |
| 20260506213818 | 15 | 171 | 4.8 | 11.3 | 0.00 | 0.13 | 0.13 | 90 | 1009.9 |
| 20260506213318 | 15 | 174 | 6.4 | 12.9 | 0.00 | 0.13 | 0.13 | 90 | 1009.9 |
| 20260506212813 | 15 | 228 | 6.4 | 14.5 | 0.00 | 0.13 | 0.13 | 90 | 1010.0 |
| 20260506212313 | 15 | 247 | 6.4 | 17.7 | 0.00 | 0.13 | 0.13 | 89 | 1010.0 |
| 20260506211813 | 15 | 221 | 6.4 | 17.7 | 0.00 | 0.13 | 0.13 | 89 | 1010.0 |
| 20260506211312 | 15 | 197 | 6.4 | 12.9 | 0.00 | 0.13 | 0.13 | 89 | 1010.1 |
| 20260506210812 | 15 | 198 | 4.8 | 12.9 | 0.00 | 0.13 | 0.13 | 90 | 1010.2 |
| 20260506210313 | 15 | 186 | 4.8 | 14.5 | 0.00 | 0.13 | 0.13 | 90 | 1010.2 |
| 20260506205813 | 15 | 286 | 6.4 | 14.5 | 0.00 | 0.13 | 0.13 | 90 | 1010.2 |
| 20260506205313 | 15 | 192 | 4.8 | 14.5 | 0.00 | 0.13 | 0.13 | 90 | 1010.3 |
| 20260506204813 | 15 | 168 | 4.8 | 16.1 | 0.00 | 0.13 | 0.13 | 90 | 1010.3 |
| 20260506204531 | 15 | 45 | 6.4 | 16.1 | 0.00 | 0.13 | 0.13 | 90 | 1010.3 |
| 20260506203813 | 15 | 273 | 6.4 | 14.5 | 0.00 | 0.13 | 0.13 | 90 | 1010.3 |
| 20260506203537 | 15 | 150 | 6.4 | 17.7 | 0.03 | 0.13 | 0.13 | 90 | 1010.4 |
| 20260506202810 | 15 | 257 | 8.0 | 17.7 | 0.05 | 0.13 | 0.13 | 90 | 1010.4 |
| 20260506202308 | 15 | 289 | 8.0 | 14.5 | 0.05 | 0.13 | 0.13 | 90 | 1010.4 |
| 20260506201808 | 15 | 206 | 8.0 | 14.5 | 0.08 | 0.13 | 0.13 | 90 | 1010.4 |
| 20260506201308 | 15 | 263 | 6.4 | 17.7 | 0.10 | 0.13 | 0.13 | 90 | 1010.4 |
| 20260506200808 | 15 | 179 | 6.4 | 17.7 | 0.10 | 0.13 | 0.13 | 90 | 1010.5 |
| 20260506200308 | 15 | 247 | 6.4 | 17.7 | 0.10 | 0.13 | 0.13 | 89 | 1010.6 |
| 20260506195808 | 15 | 231 | 6.4 | 11.3 | 0.10 | 0.13 | 0.13 | 89 | 1010.6 |
| 20260506195308 | 15 | 160 | 6.4 | 11.3 | 0.13 | 0.13 | 0.13 | 89 | 1010.5 |
| 20260506194808 | 15 | 173 | 6.4 | 12.9 | 0.13 | 0.13 | 0.13 | 89 | 1010.4 |
| 20260506194530 | 16 | 89 | 6.4 | 12.9 | 0.13 | 0.13 | 0.13 | 88 | 1010.5 |
| 20260506194031 | 16 | 198 | 6.4 | 12.9 | 0.13 | 0.13 | 0.13 | 87 | 1010.6 |
| 20260506193306 | 16 | 172 | 4.8 | 9.7 | 0.10 | 0.10 | 0.10 | 87 | 1010.6 |
| 20260506193027 | 16 | 214 | 4.8 | 12.9 | 0.08 | 0.08 | 0.08 | 86 | 1010.6 |
| 20260506192306 | 16 | 187 | 6.4 | 12.9 | 0.08 | 0.08 | 0.08 | 85 | 1010.6 |
| 20260506191806 | 16 | 203 | 6.4 | 12.9 | 0.05 | 0.05 | 0.05 | 84 | 1010.7 |
| 20260506191307 | 17 | 213 | 6.4 | 16.1 | 0.05 | 0.05 | 0.05 | 83 | 1010.6 |
| 20260506190807 | 17 | 162 | 6.4 | 16.1 | 0.03 | 0.03 | 0.03 | 82 | 1010.7 |
| 20260506190307 | 17 | 207 | 6.4 | 11.3 | 0.03 | 0.03 | 0.03 | 80 | 1010.8 |
| 20260506190031 | 17 | 319 | 6.4 | 14.5 | 0.03 | 0.03 | 0.03 | 79 | 1010.8 |
| 20260506185307 | 17 | 231 | 6.4 | 14.5 | 0.00 | 0.00 | 0.00 | 78 | 1010.9 |
| 20260506185029 | 17 | 178 | 6.4 | 14.5 | 0.00 | 0.00 | 0.00 | 77 | 1011.0 |
| 20260506184308 | 17 | 146 | 6.4 | 14.5 | 0.00 | 0.00 | 0.00 | 77 | 1011.0 |
| 20260506183808 | 18 | 205 | 6.4 | 14.5 | 0.00 | 0.00 | 0.00 | 76 | 1010.8 |
| 20260506183528 | 18 | 187 | 6.4 | 14.5 | 0.00 | 0.00 | 0.00 | 75 | 1010.9 |
| 20260506182809 | 18 | 311 | 6.4 | 14.5 | 0.00 | 0.00 | 0.00 | 74 | 1011.0 |
| 20260506182052 | 18 | 164 | 6.4 | 14.5 | 0.00 | 0.00 | 0.00 | 74 | 1011.1 |
| 20260506181551 | 18 | 177 | 6.4 | 16.1 | 0.00 | 0.00 | 0.00 | 73 | 1011.1 |
| 20260506181046 | 18 | 175 | 8.0 | 16.1 | 0.00 | 0.00 | 0.00 | 73 | 1011.1 |
| 20260506180546 | 18 | 204 | 6.4 | 16.1 | 0.00 | 0.00 | 0.00 | 72 | 1011.0 |
| 20260506180046 | 19 | 162 | 6.4 | 14.5 | 0.00 | 0.00 | 0.00 | 72 | 1011.1 |
| 20260506175546 | 19 | 102 | 6.4 | 14.5 | 0.00 | 0.00 | 0.00 | 71 | 1011.2 |
| 20260506175046 | 19 | 171 | 6.4 | 12.9 | 0.00 | 0.00 | 0.00 | 70 | 1011.3 |
| 20260506174546 | 19 | 211 | 6.4 | 14.5 | 0.00 | 0.00 | 0.00 | 70 | 1011.3 |
| 20260506174313 | 20 | 200 | 6.4 | 14.5 | 0.00 | 0.00 | 0.00 | 69 | 1011.3 |
| 20260506173546 | 20 | 184 | 6.4 | 11.3 | 0.00 | 0.00 | 0.00 | 69 | 1011.4 |
| 20260506173046 | 20 | 203 | 6.4 | 12.9 | 0.00 | 0.00 | 0.00 | 69 | 1011.5 |
| 20260506172542 | 20 | 159 | 6.4 | 12.9 | 0.00 | 0.00 | 0.00 | 68 | 1011.7 |
| 20260506172040 | 20 | 305 | 6.4 | 14.5 | 0.00 | 0.00 | 0.00 | 68 | 1011.7 |
| 20260506171541 | 20 | 10 | 8.0 | 16.1 | 0.00 | 0.00 | 0.00 | 68 | 1011.6 |
| 20260506171041 | 20 | 179 | 8.0 | 16.1 | 0.00 | 0.00 | 0.00 | 68 | 1011.5 |
| 20260506170541 | 20 | 237 | 6.4 | 14.5 | 0.00 | 0.00 | 0.00 | 67 | 1011.5 |
| 20260506170041 | 20 | 246 | 6.4 | 19.3 | 0.00 | 0.00 | 0.00 | 66 | 1011.4 |
| 20260506165541 | 20 | 334 | 6.4 | 19.3 | 0.00 | 0.00 | 0.00 | 68 | 1011.5 |
| 20260506165041 | 20 | 185 | 8.0 | 22.5 | 0.00 | 0.00 | 0.00 | 66 | 1011.6 |
| 20260506164541 | 20 | 113 | 8.0 | 22.5 | 0.00 | 0.00 | 0.00 | 66 | 1011.7 |
| 20260506164041 | 20 | 249 | 8.0 | 22.5 | 0.00 | 0.00 | 0.00 | 67 | 1011.8 |
| 20260506164022 | 20 | 160 | 9.7 | 19.3 | 0.00 | 0.00 | 0.00 | 66 | 1012.0 |
| 20260506163042 | 20 | 229 | 9.7 | 19.3 | 0.00 | 0.00 | 0.00 | 66 | 1012.0 |
| 20260506162541 | 20 | 169 | 9.7 | 22.5 | 0.00 | 0.00 | 0.00 | 66 | 1012.2 |
| 20260506162041 | 20 | 172 | 9.7 | 22.5 | 0.00 | 0.00 | 0.00 | 65 | 1012.2 |
| 20260506161541 | 20 | 180 | 9.7 | 16.1 | 0.00 | 0.00 | 0.00 | 66 | 1012.0 |
| 20260506161304 | 20 | 188 | 8.0 | 14.5 | 0.00 | 0.00 | 0.00 | 65 | 1012.2 |
| 20260506160541 | 21 | 175 | 6.4 | 12.9 | 0.00 | 0.00 | 0.00 | 66 | 1012.3 |
| 20260506160036 | 21 | 172 | 4.8 | 12.9 | 0.00 | 0.00 | 0.00 | 66 | 1012.3 |
| 20260506155536 | 21 | 144 | 6.4 | 16.1 | 0.00 | 0.00 | 0.00 | 65 | 1012.4 |
| 20260506155037 | 21 | 262 | 8.0 | 19.3 | 0.00 | 0.00 | 0.00 | 64 | 1012.5 |
| 20260506154536 | 21 | 268 | 6.4 | 19.3 | 0.00 | 0.00 | 0.00 | 64 | 1012.6 |
| 20260506154036 | 21 | 226 | 6.4 | 14.5 | 0.00 | 0.00 | 0.00 | 65 | 1012.5 |
| 20260506153536 | 21 | 135 | 8.0 | 14.5 | 0.00 | 0.00 | 0.00 | 65 | 1012.5 |
| 20260506153036 | 21 | 191 | 8.0 | 17.7 | 0.00 | 0.00 | 0.00 | 65 | 1012.6 |
| 20260506152802 | 21 | 208 | 6.4 | 17.7 | 0.00 | 0.00 | 0.00 | 66 | 1012.7 |
| 20260506152036 | 20 | 184 | 4.8 | 19.3 | 0.00 | 0.00 | 0.00 | 68 | 1012.7 |
| 20260506151536 | 20 | 168 | 6.4 | 19.3 | 0.00 | 0.00 | 0.00 | 68 | 1012.8 |
| 20260506151036 | 20 | 299 | 6.4 | 16.1 | 0.00 | 0.00 | 0.00 | 69 | 1012.7 |
| 20260506150536 | 20 | 164 | 6.4 | 12.9 | 0.00 | 0.00 | 0.00 | 68 | 1012.8 |
| 20260506150036 | 20 | 160 | 4.8 | 12.9 | 0.00 | 0.00 | 0.00 | 69 | 1012.9 |
| 20260506145536 | 20 | 175 | 6.4 | 16.1 | 0.00 | 0.00 | 0.00 | 70 | 1012.8 |
| 20260506145251 | 20 | 253 | 6.4 | 17.7 | 0.00 | 0.00 | 0.00 | 71 | 1012.8 |
| 20260506144756 | 20 | 280 | 6.4 | 17.7 | 0.00 | 0.00 | 0.00 | 70 | 1012.8 |
| 20260506144030 | 20 | 176 | 4.8 | 12.9 | 0.00 | 0.00 | 0.00 | 70 | 1012.8 |
| 20260506143531 | 20 | 278 | 6.4 | 12.9 | 0.00 | 0.00 | 0.00 | 69 | 1012.7 |